sensor_id;sensor_type;location;lat;lon;timestamp;P1;durP1;ratioP1;P2;durP2;ratioP2
59105;SDS011;44891;50.204;8.132;2022-08-03T00:02:17;4.28;;;3.97;;
59105;SDS011;44891;50.204;8.132;2022-08-03T00:06:19;4.93;;;4.53;;
59105;SDS011;44891;50.204;8.132;2022-08-03T00:10:21;4.40;;;4.00;;
59105;SDS011;44891;50.204;8.132;2022-08-03T00:14:24;4.53;;;4.07;;
59105;SDS011;44891;50.204;8.132;2022-08-03T00:18:26;5.07;;;4.57;;
59105;SDS011;44891;50.204;8.132;2022-08-03T00:22:28;5.70;;;4.65;;
59105;SDS011;44891;50.204;8.132;2022-08-03T00:26:30;5.00;;;4.60;;
59105;SDS011;44891;50.204;8.132;2022-08-03T00:30:34;4.72;;;4.20;;
59105;SDS011;44891;50.204;8.132;2022-08-03T00:34:37;4.32;;;4.03;;
59105;SDS011;44891;50.204;8.132;2022-08-03T00:38:39;4.80;;;4.40;;
59105;SDS011;44891;50.204;8.132;2022-08-03T00:42:47;4.80;;;4.40;;
59105;SDS011;44891;50.204;8.132;2022-08-03T00:46:52;5.00;;;4.30;;
59105;SDS011;44891;50.204;8.132;2022-08-03T00:50:54;4.50;;;4.07;;
59105;SDS011;44891;50.204;8.132;2022-08-03T00:54:56;5.15;;;4.30;;
59105;SDS011;44891;50.204;8.132;2022-08-03T00:58:58;5.55;;;4.10;;
59105;SDS011;44891;50.204;8.132;2022-08-03T01:03:02;4.82;;;4.40;;
59105;SDS011;44891;50.204;8.132;2022-08-03T01:07:05;5.10;;;4.20;;
59105;SDS011;44891;50.204;8.132;2022-08-03T01:11:16;4.22;;;3.83;;
59105;SDS011;44891;50.204;8.132;2022-08-03T01:15:28;5.18;;;4.40;;
59105;SDS011;44891;50.204;8.132;2022-08-03T01:19:42;4.65;;;4.25;;
59105;SDS011;44891;50.204;8.132;2022-08-03T01:23:56;4.95;;;4.47;;
59105;SDS011;44891;50.204;8.132;2022-08-03T01:28:09;4.20;;;3.83;;
59105;SDS011;44891;50.204;8.132;2022-08-03T01:32:27;6.00;;;4.47;;
59105;SDS011;44891;50.204;8.132;2022-08-03T01:36:37;5.55;;;4.03;;
59105;SDS011;44891;50.204;8.132;2022-08-03T01:40:43;4.80;;;4.30;;
59105;SDS011;44891;50.204;8.132;2022-08-03T01:44:48;4.97;;;4.47;;
59105;SDS011;44891;50.204;8.132;2022-08-03T01:48:54;4.75;;;4.30;;
59105;SDS011;44891;50.204;8.132;2022-08-03T01:52:57;4.32;;;3.92;;
59105;SDS011;44891;50.204;8.132;2022-08-03T01:57:00;4.82;;;4.38;;
59105;SDS011;44891;50.204;8.132;2022-08-03T02:01:04;4.97;;;4.47;;
59105;SDS011;44891;50.204;8.132;2022-08-03T02:05:08;4.90;;;4.40;;
59105;SDS011;44891;50.204;8.132;2022-08-03T02:09:13;4.40;;;4.00;;
59105;SDS011;44891;50.204;8.132;2022-08-03T02:13:18;5.10;;;4.60;;
59105;SDS011;44891;50.204;8.132;2022-08-03T02:17:21;6.80;;;4.60;;
59105;SDS011;44891;50.204;8.132;2022-08-03T02:21:27;4.63;;;4.30;;
59105;SDS011;44891;50.204;8.132;2022-08-03T02:25:30;7.28;;;4.45;;
59105;SDS011;44891;50.204;8.132;2022-08-03T02:29:34;5.00;;;4.50;;
59105;SDS011;44891;50.204;8.132;2022-08-03T02:33:40;4.60;;;4.20;;
59105;SDS011;44891;50.204;8.132;2022-08-03T02:37:47;5.00;;;4.50;;
59105;SDS011;44891;50.204;8.132;2022-08-03T02:41:53;4.82;;;4.43;;
59105;SDS011;44891;50.204;8.132;2022-08-03T02:46:02;4.95;;;4.55;;
59105;SDS011;44891;50.204;8.132;2022-08-03T02:50:06;5.30;;;4.80;;
59105;SDS011;44891;50.204;8.132;2022-08-03T02:54:13;4.75;;;4.38;;
59105;SDS011;44891;50.204;8.132;2022-08-03T02:58:18;5.28;;;4.78;;
59105;SDS011;44891;50.204;8.132;2022-08-03T03:02:21;7.00;;;6.32;;
59105;SDS011;44891;50.204;8.132;2022-08-03T03:06:25;6.47;;;5.93;;
59105;SDS011;44891;50.204;8.132;2022-08-03T03:10:31;5.57;;;5.03;;
59105;SDS011;44891;50.204;8.132;2022-08-03T03:14:33;5.40;;;4.90;;
59105;SDS011;44891;50.204;8.132;2022-08-03T03:18:37;5.30;;;4.80;;
59105;SDS011;44891;50.204;8.132;2022-08-03T03:22:40;5.22;;;4.72;;
59105;SDS011;44891;50.204;8.132;2022-08-03T03:26:46;7.00;;;5.15;;
59105;SDS011;44891;50.204;8.132;2022-08-03T03:30:49;5.38;;;4.88;;
59105;SDS011;44891;50.204;8.132;2022-08-03T03:34:52;5.35;;;4.85;;
59105;SDS011;44891;50.204;8.132;2022-08-03T03:38:55;5.65;;;4.90;;
59105;SDS011;44891;50.204;8.132;2022-08-03T03:42:59;5.47;;;4.80;;
59105;SDS011;44891;50.204;8.132;2022-08-03T03:47:01;5.43;;;5.03;;
59105;SDS011;44891;50.204;8.132;2022-08-03T03:51:07;5.53;;;5.03;;
59105;SDS011;44891;50.204;8.132;2022-08-03T03:55:13;5.40;;;4.90;;
59105;SDS011;44891;50.204;8.132;2022-08-03T03:59:18;5.15;;;4.68;;
59105;SDS011;44891;50.204;8.132;2022-08-03T04:03:20;5.18;;;4.70;;
59105;SDS011;44891;50.204;8.132;2022-08-03T04:07:23;5.13;;;4.68;;
59105;SDS011;44891;50.204;8.132;2022-08-03T04:11:44;5.43;;;4.60;;
59105;SDS011;44891;50.204;8.132;2022-08-03T04:15:52;5.82;;;4.78;;
59105;SDS011;44891;50.204;8.132;2022-08-03T04:19:56;5.40;;;4.90;;
59105;SDS011;44891;50.204;8.132;2022-08-03T04:24:02;5.45;;;4.95;;
59105;SDS011;44891;50.204;8.132;2022-08-03T04:28:07;6.57;;;4.60;;
59105;SDS011;44891;50.204;8.132;2022-08-03T04:32:11;9.75;;;8.75;;
59105;SDS011;44891;50.204;8.132;2022-08-03T04:36:16;6.03;;;5.22;;
59105;SDS011;44891;50.204;8.132;2022-08-03T04:40:24;6.05;;;4.50;;
59105;SDS011;44891;50.204;8.132;2022-08-03T04:44:28;5.25;;;4.75;;
59105;SDS011;44891;50.204;8.132;2022-08-03T04:48:33;6.18;;;4.80;;
59105;SDS011;44891;50.204;8.132;2022-08-03T04:52:35;5.63;;;5.03;;
59105;SDS011;44891;50.204;8.132;2022-08-03T04:56:38;5.47;;;4.97;;
59105;SDS011;44891;50.204;8.132;2022-08-03T05:00:40;6.28;;;4.95;;
59105;SDS011;44891;50.204;8.132;2022-08-03T05:04:44;6.72;;;4.80;;
59105;SDS011;44891;50.204;8.132;2022-08-03T05:08:46;5.30;;;4.80;;
59105;SDS011;44891;50.204;8.132;2022-08-03T05:12:48;4.88;;;4.47;;
59105;SDS011;44891;50.204;8.132;2022-08-03T05:16:51;5.28;;;4.78;;
59105;SDS011;44891;50.204;8.132;2022-08-03T05:20:54;7.35;;;4.40;;
59105;SDS011;44891;50.204;8.132;2022-08-03T05:24:56;4.43;;;4.13;;
59105;SDS011;44891;50.204;8.132;2022-08-03T05:28:58;5.50;;;5.00;;
59105;SDS011;44891;50.204;8.132;2022-08-03T05:33:01;4.95;;;4.45;;
59105;SDS011;44891;50.204;8.132;2022-08-03T05:37:05;4.68;;;4.22;;
59105;SDS011;44891;50.204;8.132;2022-08-03T05:41:07;6.00;;;4.65;;
59105;SDS011;44891;50.204;8.132;2022-08-03T05:45:10;6.50;;;4.60;;
59105;SDS011;44891;50.204;8.132;2022-08-03T05:49:17;5.13;;;4.72;;
59105;SDS011;44891;50.204;8.132;2022-08-03T05:53:20;5.53;;;4.30;;
59105;SDS011;44891;50.204;8.132;2022-08-03T05:57:22;4.80;;;4.30;;
59105;SDS011;44891;50.204;8.132;2022-08-03T06:01:25;4.75;;;4.25;;
59105;SDS011;44891;50.204;8.132;2022-08-03T06:05:27;4.45;;;4.13;;
59105;SDS011;44891;50.204;8.132;2022-08-03T06:09:32;4.47;;;4.07;;
59105;SDS011;44891;50.204;8.132;2022-08-03T06:13:34;5.60;;;4.00;;
59105;SDS011;44891;50.204;8.132;2022-08-03T06:17:43;4.60;;;4.20;;
59105;SDS011;44891;50.204;8.132;2022-08-03T06:21:46;4.68;;;4.28;;
59105;SDS011;44891;50.204;8.132;2022-08-03T06:25:50;4.85;;;4.40;;
59105;SDS011;44891;50.204;8.132;2022-08-03T06:29:52;4.90;;;4.50;;
59105;SDS011;44891;50.204;8.132;2022-08-03T06:33:54;6.13;;;4.50;;
59105;SDS011;44891;50.204;8.132;2022-08-03T06:37:56;5.20;;;4.60;;
59105;SDS011;44891;50.204;8.132;2022-08-03T06:42:00;5.18;;;4.10;;
59105;SDS011;44891;50.204;8.132;2022-08-03T06:46:02;7.22;;;4.15;;
59105;SDS011;44891;50.204;8.132;2022-08-03T06:50:05;5.28;;;4.00;;
59105;SDS011;44891;50.204;8.132;2022-08-03T06:54:08;5.15;;;3.95;;
59105;SDS011;44891;50.204;8.132;2022-08-03T06:58:13;4.18;;;3.78;;
59105;SDS011;44891;50.204;8.132;2022-08-03T07:02:15;3.95;;;3.55;;
59105;SDS011;44891;50.204;8.132;2022-08-03T07:06:18;5.28;;;4.57;;
59105;SDS011;44891;50.204;8.132;2022-08-03T07:10:20;4.38;;;3.97;;
59105;SDS011;44891;50.204;8.132;2022-08-03T07:14:23;5.22;;;3.70;;
59105;SDS011;44891;50.204;8.132;2022-08-03T07:18:25;4.22;;;3.83;;
59105;SDS011;44891;50.204;8.132;2022-08-03T07:22:27;3.65;;;3.35;;
59105;SDS011;44891;50.204;8.132;2022-08-03T07:26:30;4.38;;;3.88;;
59105;SDS011;44891;50.204;8.132;2022-08-03T07:30:33;7.70;;;4.18;;
59105;SDS011;44891;50.204;8.132;2022-08-03T07:34:35;10.25;;;4.45;;
59105;SDS011;44891;50.204;8.132;2022-08-03T07:38:37;83.38;;;10.45;;
59105;SDS011;44891;50.204;8.132;2022-08-03T07:42:39;5.03;;;3.90;;
59105;SDS011;44891;50.204;8.132;2022-08-03T07:46:43;4.00;;;3.50;;
59105;SDS011;44891;50.204;8.132;2022-08-03T07:50:45;5.88;;;3.63;;
59105;SDS011;44891;50.204;8.132;2022-08-03T07:54:47;3.90;;;3.60;;
59105;SDS011;44891;50.204;8.132;2022-08-03T07:58:49;4.28;;;3.70;;
59105;SDS011;44891;50.204;8.132;2022-08-03T08:02:53;6.03;;;3.90;;
59105;SDS011;44891;50.204;8.132;2022-08-03T08:06:55;4.05;;;3.67;;
59105;SDS011;44891;50.204;8.132;2022-08-03T08:10:57;4.05;;;3.75;;
59105;SDS011;44891;50.204;8.132;2022-08-03T08:14:59;4.97;;;3.95;;
59105;SDS011;44891;50.204;8.132;2022-08-03T08:19:03;6.85;;;3.70;;
59105;SDS011;44891;50.204;8.132;2022-08-03T08:23:06;4.75;;;3.53;;
59105;SDS011;44891;50.204;8.132;2022-08-03T08:27:09;5.13;;;3.70;;
59105;SDS011;44891;50.204;8.132;2022-08-03T08:31:12;4.82;;;3.83;;
59105;SDS011;44891;50.204;8.132;2022-08-03T08:35:15;4.68;;;4.00;;
59105;SDS011;44891;50.204;8.132;2022-08-03T08:39:18;4.05;;;3.50;;
59105;SDS011;44891;50.204;8.132;2022-08-03T08:43:20;4.03;;;3.70;;
59105;SDS011;44891;50.204;8.132;2022-08-03T08:47:23;3.80;;;3.50;;
59105;SDS011;44891;50.204;8.132;2022-08-03T08:51:29;3.70;;;3.40;;
59105;SDS011;44891;50.204;8.132;2022-08-03T08:55:34;3.53;;;3.25;;
59105;SDS011;44891;50.204;8.132;2022-08-03T08:59:37;4.57;;;3.45;;
59105;SDS011;44891;50.204;8.132;2022-08-03T09:03:39;4.32;;;3.53;;
59105;SDS011;44891;50.204;8.132;2022-08-03T09:07:43;3.67;;;3.38;;
59105;SDS011;44891;50.204;8.132;2022-08-03T09:11:46;3.70;;;3.40;;
59105;SDS011;44891;50.204;8.132;2022-08-03T09:16:02;3.92;;;3.50;;
59105;SDS011;44891;50.204;8.132;2022-08-03T09:20:10;3.73;;;3.30;;
59105;SDS011;44891;50.204;8.132;2022-08-03T09:24:14;4.00;;;3.60;;
59105;SDS011;44891;50.204;8.132;2022-08-03T09:28:22;3.58;;;3.30;;
59105;SDS011;44891;50.204;8.132;2022-08-03T09:32:24;3.92;;;3.50;;
59105;SDS011;44891;50.204;8.132;2022-08-03T09:36:33;3.50;;;3.20;;
59105;SDS011;44891;50.204;8.132;2022-08-03T09:40:40;3.90;;;3.38;;
59105;SDS011;44891;50.204;8.132;2022-08-03T09:44:44;3.90;;;3.53;;
59105;SDS011;44891;50.204;8.132;2022-08-03T09:48:46;3.67;;;3.38;;
59105;SDS011;44891;50.204;8.132;2022-08-03T09:52:49;3.97;;;3.60;;
59105;SDS011;44891;50.204;8.132;2022-08-03T09:56:53;3.90;;;3.55;;
59105;SDS011;44891;50.204;8.132;2022-08-03T10:00:56;3.90;;;3.58;;
59105;SDS011;44891;50.204;8.132;2022-08-03T10:04:59;3.70;;;3.40;;
59105;SDS011;44891;50.204;8.132;2022-08-03T10:09:05;3.75;;;3.30;;
59105;SDS011;44891;50.204;8.132;2022-08-03T10:13:10;3.47;;;3.28;;
59105;SDS011;44891;50.204;8.132;2022-08-03T10:17:14;3.35;;;3.08;;
59105;SDS011;44891;50.204;8.132;2022-08-03T10:21:16;3.65;;;3.33;;
59105;SDS011;44891;50.204;8.132;2022-08-03T10:25:20;3.58;;;3.25;;
59105;SDS011;44891;50.204;8.132;2022-08-03T10:29:24;3.35;;;3.15;;
59105;SDS011;44891;50.204;8.132;2022-08-03T10:33:29;4.28;;;3.15;;
59105;SDS011;44891;50.204;8.132;2022-08-03T10:37:36;3.38;;;3.17;;
59105;SDS011;44891;50.204;8.132;2022-08-03T10:41:42;3.50;;;3.20;;
59105;SDS011;44891;50.204;8.132;2022-08-03T10:45:48;3.85;;;2.95;;
59105;SDS011;44891;50.204;8.132;2022-08-03T10:49:51;3.58;;;3.35;;
59105;SDS011;44891;50.204;8.132;2022-08-03T10:53:53;4.47;;;3.00;;
59105;SDS011;44891;50.204;8.132;2022-08-03T10:57:55;3.70;;;3.40;;
59105;SDS011;44891;50.204;8.132;2022-08-03T11:01:59;4.32;;;3.17;;
59105;SDS011;44891;50.204;8.132;2022-08-03T11:06:13;3.63;;;3.30;;
59105;SDS011;44891;50.204;8.132;2022-08-03T11:10:28;3.60;;;3.30;;
59105;SDS011;44891;50.204;8.132;2022-08-03T11:14:31;3.20;;;3.00;;
59105;SDS011;44891;50.204;8.132;2022-08-03T11:18:55;3.40;;;3.10;;
59105;SDS011;44891;50.204;8.132;2022-08-03T11:22:59;3.30;;;3.00;;
59105;SDS011;44891;50.204;8.132;2022-08-03T11:27:15;3.15;;;2.95;;
59105;SDS011;44891;50.204;8.132;2022-08-03T11:35:58;3.22;;;2.90;;
59105;SDS011;44891;50.204;8.132;2022-08-03T11:40:01;7.43;;;2.80;;
59105;SDS011;44891;50.204;8.132;2022-08-03T11:44:04;2.72;;;2.53;;
59105;SDS011;44891;50.204;8.132;2022-08-03T11:48:12;2.80;;;2.60;;
59105;SDS011;44891;50.204;8.132;2022-08-03T11:52:17;2.80;;;2.40;;
59105;SDS011;44891;50.204;8.132;2022-08-03T11:56:19;2.53;;;2.33;;
59105;SDS011;44891;50.204;8.132;2022-08-03T12:00:22;2.80;;;2.60;;
59105;SDS011;44891;50.204;8.132;2022-08-03T12:04:26;3.25;;;2.40;;
59105;SDS011;44891;50.204;8.132;2022-08-03T12:08:30;3.65;;;2.67;;
59105;SDS011;44891;50.204;8.132;2022-08-03T12:12:33;2.70;;;2.50;;
59105;SDS011;44891;50.204;8.132;2022-08-03T12:16:35;2.90;;;2.60;;
59105;SDS011;44891;50.204;8.132;2022-08-03T12:20:38;2.65;;;2.45;;
59105;SDS011;44891;50.204;8.132;2022-08-03T12:24:42;2.45;;;2.25;;
59105;SDS011;44891;50.204;8.132;2022-08-03T12:28:46;2.85;;;2.40;;
59105;SDS011;44891;50.204;8.132;2022-08-03T12:32:49;2.45;;;2.25;;
59105;SDS011;44891;50.204;8.132;2022-08-03T12:36:51;2.65;;;2.20;;
59105;SDS011;44891;50.204;8.132;2022-08-03T12:40:58;2.40;;;2.10;;
59105;SDS011;44891;50.204;8.132;2022-08-03T12:49:21;2.22;;;2.03;;
59105;SDS011;44891;50.204;8.132;2022-08-03T12:53:27;2.70;;;2.50;;
59105;SDS011;44891;50.204;8.132;2022-08-03T12:57:40;2.88;;;2.60;;
59105;SDS011;44891;50.204;8.132;2022-08-03T13:01:43;2.70;;;2.50;;
59105;SDS011;44891;50.204;8.132;2022-08-03T13:05:45;3.65;;;2.70;;
59105;SDS011;44891;50.204;8.132;2022-08-03T13:09:48;2.50;;;2.30;;
59105;SDS011;44891;50.204;8.132;2022-08-03T13:13:53;3.60;;;2.40;;
59105;SDS011;44891;50.204;8.132;2022-08-03T13:17:56;3.30;;;2.63;;
59105;SDS011;44891;50.204;8.132;2022-08-03T13:21:58;2.97;;;2.30;;
59105;SDS011;44891;50.204;8.132;2022-08-03T13:26:02;2.88;;;2.67;;
59105;SDS011;44891;50.204;8.132;2022-08-03T13:30:08;2.67;;;2.47;;
59105;SDS011;44891;50.204;8.132;2022-08-03T13:34:11;2.40;;;2.10;;
59105;SDS011;44891;50.204;8.132;2022-08-03T13:38:13;2.72;;;2.50;;
59105;SDS011;44891;50.204;8.132;2022-08-03T13:42:15;2.85;;;2.30;;
59105;SDS011;44891;50.204;8.132;2022-08-03T13:46:19;2.70;;;2.50;;
59105;SDS011;44891;50.204;8.132;2022-08-03T13:50:21;2.67;;;2.47;;
59105;SDS011;44891;50.204;8.132;2022-08-03T13:54:23;3.28;;;2.50;;
59105;SDS011;44891;50.204;8.132;2022-08-03T13:58:25;2.53;;;2.25;;
59105;SDS011;44891;50.204;8.132;2022-08-03T14:02:29;2.40;;;2.20;;
59105;SDS011;44891;50.204;8.132;2022-08-03T14:06:31;2.50;;;2.30;;
59105;SDS011;44891;50.204;8.132;2022-08-03T14:10:33;3.13;;;2.60;;
59105;SDS011;44891;50.204;8.132;2022-08-03T14:14:37;2.60;;;2.40;;
59105;SDS011;44891;50.204;8.132;2022-08-03T14:18:41;2.13;;;2.03;;
59105;SDS011;44891;50.204;8.132;2022-08-03T14:22:43;2.70;;;2.50;;
59105;SDS011;44891;50.204;8.132;2022-08-03T14:26:45;2.70;;;2.40;;
59105;SDS011;44891;50.204;8.132;2022-08-03T14:30:47;2.47;;;2.28;;
59105;SDS011;44891;50.204;8.132;2022-08-03T14:34:50;3.78;;;2.33;;
59105;SDS011;44891;50.204;8.132;2022-08-03T14:38:52;2.70;;;2.50;;
59105;SDS011;44891;50.204;8.132;2022-08-03T14:42:54;2.75;;;2.35;;
59105;SDS011;44891;50.204;8.132;2022-08-03T14:46:57;2.95;;;2.30;;
59105;SDS011;44891;50.204;8.132;2022-08-03T14:51:00;2.70;;;2.20;;
59105;SDS011;44891;50.204;8.132;2022-08-03T14:55:02;2.75;;;2.30;;
59105;SDS011;44891;50.204;8.132;2022-08-03T14:59:05;2.40;;;2.20;;
59105;SDS011;44891;50.204;8.132;2022-08-03T15:03:07;2.83;;;2.55;;
59105;SDS011;44891;50.204;8.132;2022-08-03T15:07:10;2.80;;;2.45;;
59105;SDS011;44891;50.204;8.132;2022-08-03T15:11:12;2.53;;;2.33;;
59105;SDS011;44891;50.204;8.132;2022-08-03T15:15:14;3.90;;;2.30;;
59105;SDS011;44891;50.204;8.132;2022-08-03T15:19:16;2.40;;;2.30;;
59105;SDS011;44891;50.204;8.132;2022-08-03T15:23:20;3.08;;;2.33;;
59105;SDS011;44891;50.204;8.132;2022-08-03T15:27:22;2.30;;;2.20;;
59105;SDS011;44891;50.204;8.132;2022-08-03T15:31:24;2.60;;;2.40;;
59105;SDS011;44891;50.204;8.132;2022-08-03T15:35:26;3.28;;;2.40;;
59105;SDS011;44891;50.204;8.132;2022-08-03T15:39:30;2.60;;;2.40;;
59105;SDS011;44891;50.204;8.132;2022-08-03T15:43:32;2.20;;;2.10;;
59105;SDS011;44891;50.204;8.132;2022-08-03T15:47:34;2.50;;;2.30;;
59105;SDS011;44891;50.204;8.132;2022-08-03T15:51:36;4.47;;;2.40;;
59105;SDS011;44891;50.204;8.132;2022-08-03T15:55:40;2.50;;;2.30;;
59105;SDS011;44891;50.204;8.132;2022-08-03T15:59:43;3.17;;;2.30;;
59105;SDS011;44891;50.204;8.132;2022-08-03T16:03:45;2.47;;;2.33;;
59105;SDS011;44891;50.204;8.132;2022-08-03T16:07:47;3.78;;;2.60;;
59105;SDS011;44891;50.204;8.132;2022-08-03T16:11:54;2.65;;;2.45;;
59105;SDS011;44891;50.204;8.132;2022-08-03T16:15:56;2.63;;;2.40;;
59105;SDS011;44891;50.204;8.132;2022-08-03T16:19:59;2.40;;;2.30;;
59105;SDS011;44891;50.204;8.132;2022-08-03T16:24:01;2.58;;;2.38;;
59105;SDS011;44891;50.204;8.132;2022-08-03T16:28:06;2.60;;;2.40;;
59105;SDS011;44891;50.204;8.132;2022-08-03T16:32:08;2.38;;;2.17;;
59105;SDS011;44891;50.204;8.132;2022-08-03T16:36:11;2.80;;;2.42;;
59105;SDS011;44891;50.204;8.132;2022-08-03T16:40:13;2.40;;;2.20;;
59105;SDS011;44891;50.204;8.132;2022-08-03T16:44:16;2.92;;;2.30;;
59105;SDS011;44891;50.204;8.132;2022-08-03T16:48:19;2.50;;;2.30;;
59105;SDS011;44891;50.204;8.132;2022-08-03T16:52:21;2.60;;;2.35;;
59105;SDS011;44891;50.204;8.132;2022-08-03T16:56:23;2.42;;;2.22;;
59105;SDS011;44891;50.204;8.132;2022-08-03T17:00:26;3.72;;;2.50;;
59105;SDS011;44891;50.204;8.132;2022-08-03T17:04:29;2.83;;;2.50;;
59105;SDS011;44891;50.204;8.132;2022-08-03T17:08:31;3.28;;;2.33;;
59105;SDS011;44891;50.204;8.132;2022-08-03T17:12:34;3.85;;;2.53;;
59105;SDS011;44891;50.204;8.132;2022-08-03T17:16:38;2.88;;;2.63;;
59105;SDS011;44891;50.204;8.132;2022-08-03T17:20:40;2.90;;;2.60;;
59105;SDS011;44891;50.204;8.132;2022-08-03T17:24:48;2.60;;;2.40;;
59105;SDS011;44891;50.204;8.132;2022-08-03T17:28:51;2.85;;;2.65;;
59105;SDS011;44891;50.204;8.132;2022-08-03T17:32:55;4.70;;;2.50;;
59105;SDS011;44891;50.204;8.132;2022-08-03T17:36:57;2.75;;;2.55;;
59105;SDS011;44891;50.204;8.132;2022-08-03T17:41:00;3.50;;;2.65;;
59105;SDS011;44891;50.204;8.132;2022-08-03T17:45:03;3.03;;;2.70;;
59105;SDS011;44891;50.204;8.132;2022-08-03T17:49:07;3.10;;;2.80;;
59105;SDS011;44891;50.204;8.132;2022-08-03T17:53:11;3.30;;;2.78;;
59105;SDS011;44891;50.204;8.132;2022-08-03T17:57:18;3.47;;;2.97;;
59105;SDS011;44891;50.204;8.132;2022-08-03T18:01:30;2.60;;;2.40;;
59105;SDS011;44891;50.204;8.132;2022-08-03T18:06:04;2.65;;;2.45;;
59105;SDS011;44891;50.204;8.132;2022-08-03T18:10:08;3.10;;;2.80;;
59105;SDS011;44891;50.204;8.132;2022-08-03T18:14:11;3.25;;;2.70;;
59105;SDS011;44891;50.204;8.132;2022-08-03T18:18:16;3.00;;;2.80;;
59105;SDS011;44891;50.204;8.132;2022-08-03T18:22:21;3.30;;;2.65;;
59105;SDS011;44891;50.204;8.132;2022-08-03T18:26:23;3.45;;;2.95;;
59105;SDS011;44891;50.204;8.132;2022-08-03T18:30:26;3.58;;;2.90;;
59105;SDS011;44891;50.204;8.132;2022-08-03T18:34:28;3.15;;;2.95;;
59105;SDS011;44891;50.204;8.132;2022-08-03T18:38:32;3.10;;;2.90;;
59105;SDS011;44891;50.204;8.132;2022-08-03T18:42:36;3.20;;;3.00;;
59105;SDS011;44891;50.204;8.132;2022-08-03T18:46:44;3.28;;;2.88;;
59105;SDS011;44891;50.204;8.132;2022-08-03T18:50:48;3.30;;;3.10;;
59105;SDS011;44891;50.204;8.132;2022-08-03T18:54:58;3.45;;;3.15;;
59105;SDS011;44891;50.204;8.132;2022-08-03T18:59:08;3.38;;;2.90;;
59105;SDS011;44891;50.204;8.132;2022-08-03T19:03:13;3.58;;;3.28;;
59105;SDS011;44891;50.204;8.132;2022-08-03T19:07:24;3.25;;;3.05;;
59105;SDS011;44891;50.204;8.132;2022-08-03T19:11:30;3.60;;;3.10;;
59105;SDS011;44891;50.204;8.132;2022-08-03T19:15:39;4.45;;;3.38;;
59105;SDS011;44891;50.204;8.132;2022-08-03T19:19:43;4.32;;;3.50;;
59105;SDS011;44891;50.204;8.132;2022-08-03T19:23:46;3.42;;;3.13;;
59105;SDS011;44891;50.204;8.132;2022-08-03T19:27:51;3.50;;;3.20;;
59105;SDS011;44891;50.204;8.132;2022-08-03T19:31:53;6.50;;;3.53;;
59105;SDS011;44891;50.204;8.132;2022-08-03T19:35:57;3.67;;;3.33;;
59105;SDS011;44891;50.204;8.132;2022-08-03T19:40:00;4.57;;;3.55;;
59105;SDS011;44891;50.204;8.132;2022-08-03T19:44:04;4.13;;;3.47;;
59105;SDS011;44891;50.204;8.132;2022-08-03T19:48:10;4.10;;;3.70;;
59105;SDS011;44891;50.204;8.132;2022-08-03T19:52:13;4.82;;;3.75;;
59105;SDS011;44891;50.204;8.132;2022-08-03T19:56:18;4.93;;;3.40;;
59105;SDS011;44891;50.204;8.132;2022-08-03T20:00:25;5.00;;;3.85;;
59105;SDS011;44891;50.204;8.132;2022-08-03T20:04:29;3.67;;;3.35;;
59105;SDS011;44891;50.204;8.132;2022-08-03T20:08:31;3.97;;;3.67;;
59105;SDS011;44891;50.204;8.132;2022-08-03T20:12:34;4.03;;;3.58;;
59105;SDS011;44891;50.204;8.132;2022-08-03T20:16:40;5.25;;;3.55;;
59105;SDS011;44891;50.204;8.132;2022-08-03T20:20:42;3.70;;;3.40;;
59105;SDS011;44891;50.204;8.132;2022-08-03T20:24:48;3.95;;;3.65;;
59105;SDS011;44891;50.204;8.132;2022-08-03T20:28:55;4.43;;;3.97;;
59105;SDS011;44891;50.204;8.132;2022-08-03T20:33:03;4.15;;;3.72;;
59105;SDS011;44891;50.204;8.132;2022-08-03T20:37:07;5.93;;;4.00;;
59105;SDS011;44891;50.204;8.132;2022-08-03T20:41:09;4.55;;;3.80;;
59105;SDS011;44891;50.204;8.132;2022-08-03T20:45:11;7.72;;;4.22;;
59105;SDS011;44891;50.204;8.132;2022-08-03T20:49:15;4.20;;;3.80;;
59105;SDS011;44891;50.204;8.132;2022-08-03T20:53:19;5.43;;;3.75;;
59105;SDS011;44891;50.204;8.132;2022-08-03T20:57:21;4.45;;;4.05;;
59105;SDS011;44891;50.204;8.132;2022-08-03T21:01:24;7.88;;;5.32;;
59105;SDS011;44891;50.204;8.132;2022-08-03T21:05:28;6.72;;;4.97;;
59105;SDS011;44891;50.204;8.132;2022-08-03T21:09:33;5.10;;;4.00;;
59105;SDS011;44891;50.204;8.132;2022-08-03T21:13:42;4.50;;;4.10;;
59105;SDS011;44891;50.204;8.132;2022-08-03T21:17:48;4.65;;;3.78;;
59105;SDS011;44891;50.204;8.132;2022-08-03T21:21:53;6.07;;;3.83;;
59105;SDS011;44891;50.204;8.132;2022-08-03T21:25:56;4.00;;;3.40;;
59105;SDS011;44891;50.204;8.132;2022-08-03T21:30:00;3.78;;;3.47;;
59105;SDS011;44891;50.204;8.132;2022-08-03T21:34:03;3.90;;;3.50;;
59105;SDS011;44891;50.204;8.132;2022-08-03T21:38:07;3.80;;;3.50;;
59105;SDS011;44891;50.204;8.132;2022-08-03T21:42:21;4.20;;;3.80;;
59105;SDS011;44891;50.204;8.132;2022-08-03T21:46:24;4.10;;;3.70;;
59105;SDS011;44891;50.204;8.132;2022-08-03T21:50:27;4.65;;;3.72;;
59105;SDS011;44891;50.204;8.132;2022-08-03T21:54:33;3.92;;;3.53;;
59105;SDS011;44891;50.204;8.132;2022-08-03T21:58:37;4.35;;;3.90;;
59105;SDS011;44891;50.204;8.132;2022-08-03T22:02:43;4.07;;;3.67;;
59105;SDS011;44891;50.204;8.132;2022-08-03T22:06:48;4.18;;;3.78;;
59105;SDS011;44891;50.204;8.132;2022-08-03T22:10:52;4.07;;;3.72;;
59105;SDS011;44891;50.204;8.132;2022-08-03T22:14:54;5.18;;;3.80;;
59105;SDS011;44891;50.204;8.132;2022-08-03T22:18:58;5.13;;;3.78;;
59105;SDS011;44891;50.204;8.132;2022-08-03T22:23:00;4.82;;;3.90;;
59105;SDS011;44891;50.204;8.132;2022-08-03T22:27:05;4.50;;;4.10;;
59105;SDS011;44891;50.204;8.132;2022-08-03T22:31:25;4.22;;;3.83;;
59105;SDS011;44891;50.204;8.132;2022-08-03T22:35:27;4.10;;;3.70;;
59105;SDS011;44891;50.204;8.132;2022-08-03T22:39:31;4.20;;;3.90;;
59105;SDS011;44891;50.204;8.132;2022-08-03T22:43:36;4.10;;;3.75;;
59105;SDS011;44891;50.204;8.132;2022-08-03T22:47:40;4.15;;;3.75;;
59105;SDS011;44891;50.204;8.132;2022-08-03T22:51:43;4.60;;;4.20;;
59105;SDS011;44891;50.204;8.132;2022-08-03T22:55:46;4.47;;;4.07;;
59105;SDS011;44891;50.204;8.132;2022-08-03T22:59:50;5.10;;;3.78;;
59105;SDS011;44891;50.204;8.132;2022-08-03T23:03:56;4.78;;;4.05;;
59105;SDS011;44891;50.204;8.132;2022-08-03T23:08:01;5.00;;;3.90;;
59105;SDS011;44891;50.204;8.132;2022-08-03T23:12:04;3.97;;;3.67;;
59105;SDS011;44891;50.204;8.132;2022-08-03T23:16:08;4.95;;;3.88;;
59105;SDS011;44891;50.204;8.132;2022-08-03T23:20:10;4.20;;;3.80;;
59105;SDS011;44891;50.204;8.132;2022-08-03T23:24:13;4.70;;;4.30;;
59105;SDS011;44891;50.204;8.132;2022-08-03T23:28:16;5.55;;;4.57;;
59105;SDS011;44891;50.204;8.132;2022-08-03T23:32:20;4.53;;;4.10;;
59105;SDS011;44891;50.204;8.132;2022-08-03T23:36:25;5.50;;;3.90;;
59105;SDS011;44891;50.204;8.132;2022-08-03T23:40:27;4.53;;;4.13;;
59105;SDS011;44891;50.204;8.132;2022-08-03T23:44:30;4.60;;;4.10;;
59105;SDS011;44891;50.204;8.132;2022-08-03T23:48:36;4.50;;;4.10;;
59105;SDS011;44891;50.204;8.132;2022-08-03T23:52:39;3.95;;;3.65;;
59105;SDS011;44891;50.204;8.132;2022-08-03T23:56:51;4.43;;;4.03;;
